createdAt,value
2018-02-07T00:01:57.581Z,45.77
2018-02-07T00:04:25.264Z,37.90
2018-02-07T00:06:52.032Z,41.80
2018-02-07T00:09:18.879Z,40.10
2018-02-07T00:11:45.553Z,46.37
2018-02-07T00:14:12.418Z,37.30
2018-02-07T00:16:39.974Z,38.53
2018-02-07T00:19:06.692Z,45.30
2018-02-07T00:21:33.373Z,36.90
2018-02-07T00:24:00.084Z,39.80
2018-02-07T00:26:26.764Z,40.80
2018-02-07T00:28:53.483Z,40.27
2018-02-07T00:31:20.162Z,40.53
2018-02-07T00:33:46.905Z,39.43
2018-02-07T00:36:13.600Z,39.70
2018-02-07T00:38:40.470Z,41.87
2018-02-07T00:41:07.156Z,37.33
2018-02-07T00:43:33.861Z,43.60
2018-02-07T00:46:00.654Z,41.13
2018-02-07T00:48:27.342Z,38.73
2018-02-07T00:50:54.038Z,46.70
2018-02-07T00:53:20.795Z,40.40
2018-02-07T00:55:47.518Z,44.00
2018-02-07T00:58:14.264Z,42.10
2018-02-07T01:00:41.090Z,39.93
2018-02-07T01:03:07.979Z,36.60
2018-02-07T01:05:34.924Z,41.90
2018-02-07T01:08:01.600Z,44.90
2018-02-07T01:13:12.007Z,39.27
2018-02-07T01:15:38.847Z,37.03
2018-02-07T01:18:05.550Z,41.23
2018-02-07T01:20:32.672Z,45.23
2018-02-07T01:23:02.739Z,44.87
2018-02-07T01:25:29.512Z,39.33
2018-02-07T01:27:56.325Z,42.00
2018-02-07T01:30:25.161Z,44.20
2018-02-07T01:32:52.874Z,46.13
2018-02-07T01:35:19.602Z,39.37
2018-02-07T01:37:46.491Z,40.40
2018-02-07T01:40:13.440Z,42.03
2018-02-07T01:42:40.203Z,41.23
2018-02-07T01:45:07.035Z,38.70
2018-02-07T01:47:33.716Z,39.13
2018-02-07T01:50:00.428Z,37.20
2018-02-07T01:52:27.364Z,39.43
2018-02-07T01:54:56.201Z,44.60
2018-02-07T01:57:23.136Z,41.03
2018-02-07T01:59:55.452Z,42.30
2018-02-07T02:02:22.248Z,42.53
2018-02-07T02:04:50.225Z,41.23
2018-02-07T02:07:19.042Z,38.37
2018-02-07T02:09:47.059Z,35.13
2018-02-07T02:12:14.652Z,39.40
2018-02-07T02:14:41.366Z,41.57
2018-02-07T02:17:08.107Z,40.50
2018-02-07T02:19:34.822Z,39.37
2018-02-07T02:22:01.894Z,37.43
2018-02-07T02:24:28.859Z,37.80
2018-02-07T02:26:55.650Z,41.33
2018-02-07T02:29:22.498Z,41.57
2018-02-07T02:31:49.453Z,37.83
2018-02-07T02:34:16.287Z,39.73
2018-02-07T02:36:43.239Z,38.50
2018-02-07T02:39:10.022Z,37.50
2018-02-07T02:41:36.695Z,35.83
2018-02-07T02:44:03.481Z,36.53
2018-02-07T02:46:30.192Z,39.30
2018-02-07T02:48:57.080Z,36.30
2018-02-07T02:51:23.774Z,42.70
2018-02-07T02:53:50.475Z,42.70
2018-02-07T02:56:17.174Z,40.57
2018-02-07T02:58:44.155Z,37.20
2018-02-07T03:01:10.857Z,39.20
2018-02-07T03:03:37.555Z,39.37
2018-02-07T03:06:04.293Z,41.20
2018-02-07T03:08:30.977Z,37.50
2018-02-07T03:10:57.760Z,37.30
2018-02-07T03:13:24.457Z,39.43
2018-02-07T03:15:51.209Z,40.07
2018-02-07T03:18:17.958Z,35.00
2018-02-07T03:20:44.746Z,38.67
2018-02-07T03:23:11.433Z,36.67
2018-02-07T03:25:38.164Z,38.90
2018-02-07T03:28:05.184Z,36.97
2018-02-07T03:30:31.849Z,43.50
2018-02-07T03:32:58.549Z,37.80
2018-02-07T03:35:25.242Z,40.73
2018-02-07T03:37:51.940Z,36.60
2018-02-07T03:40:18.681Z,37.03
2018-02-07T03:42:45.378Z,36.93
2018-02-07T03:45:12.123Z,43.90
2018-02-07T03:47:38.934Z,41.40
2018-02-07T03:50:05.601Z,40.73
2018-02-07T03:52:32.307Z,41.30
2018-02-07T03:54:58.979Z,37.23
2018-02-07T03:57:25.677Z,40.20
2018-02-07T03:59:52.398Z,37.77
2018-02-07T04:02:19.084Z,34.40
2018-02-07T04:04:45.838Z,38.53
2018-02-07T04:07:12.528Z,39.73
2018-02-07T04:09:39.321Z,37.23
2018-02-07T04:12:06.023Z,40.13
2018-02-07T04:14:32.740Z,36.60
2018-02-07T04:16:59.487Z,40.17
2018-02-07T04:19:26.170Z,40.67
2018-02-07T04:21:52.882Z,40.00
2018-02-07T04:24:19.558Z,41.80
2018-02-07T04:26:46.284Z,41.30
2018-02-07T04:29:13.018Z,41.07
2018-02-07T04:31:39.792Z,40.30
2018-02-07T04:34:06.514Z,40.53
2018-02-07T04:36:33.269Z,46.10
2018-02-07T04:39:00.098Z,36.67
2018-02-07T04:41:26.794Z,46.13
2018-02-07T04:43:53.491Z,36.23
2018-02-07T04:46:20.237Z,42.43
2018-02-07T04:48:47.022Z,39.10
2018-02-07T04:51:13.743Z,40.70
2018-02-07T04:53:40.484Z,46.80
2018-02-07T04:56:07.330Z,36.47
2018-02-07T04:58:34.138Z,42.97
2018-02-07T05:01:00.950Z,39.83
2018-02-07T05:03:27.690Z,44.30
2018-02-07T05:05:54.402Z,47.97
2018-02-07T05:08:21.100Z,44.20
2018-02-07T05:10:47.768Z,44.43
2018-02-07T05:13:14.463Z,39.83
2018-02-07T05:15:41.153Z,41.67
2018-02-07T05:18:07.849Z,39.60
2018-02-07T05:20:34.621Z,40.00
2018-02-07T05:23:01.345Z,41.10
2018-02-07T05:25:28.050Z,42.60
2018-02-07T05:27:54.779Z,41.00
2018-02-07T05:30:21.481Z,42.43
2018-02-07T05:32:55.198Z,42.97
2018-02-07T05:35:21.889Z,40.97
2018-02-07T05:37:48.573Z,43.83
2018-02-07T05:40:15.314Z,38.67
2018-02-07T05:42:41.995Z,42.87
2018-02-07T05:45:08.869Z,39.10
2018-02-07T05:47:35.579Z,47.70
2018-02-07T05:50:02.349Z,42.00
2018-02-07T05:52:29.050Z,47.90
2018-02-07T05:54:55.789Z,45.27
2018-02-07T05:57:22.473Z,43.27
2018-02-07T05:59:49.167Z,44.00
2018-02-07T06:02:15.878Z,42.63
2018-02-07T06:04:42.624Z,49.63
2018-02-07T06:07:09.394Z,43.87
2018-02-07T06:09:36.134Z,47.60
2018-02-07T06:12:02.871Z,42.40
2018-02-07T06:14:30.232Z,40.43
2018-02-07T06:16:57.078Z,42.50
2018-02-07T06:19:23.749Z,41.93
2018-02-07T06:21:50.571Z,43.73
2018-02-07T06:24:17.612Z,41.67
2018-02-07T06:26:44.318Z,40.37
2018-02-07T06:29:11.225Z,40.67
2018-02-07T06:31:37.938Z,40.07
2018-02-07T06:34:04.847Z,39.40
2018-02-07T06:36:31.626Z,42.37
2018-02-07T06:38:58.317Z,38.70
2018-02-07T06:41:25.070Z,39.63
2018-02-07T06:43:51.777Z,37.27
2018-02-07T06:46:18.533Z,37.37
2018-02-07T06:48:45.221Z,41.70
2018-02-07T06:51:11.904Z,43.57
2018-02-07T06:53:38.650Z,46.57
2018-02-07T06:56:05.462Z,38.93
2018-02-07T06:58:32.314Z,44.13
2018-02-07T07:00:58.981Z,44.23
2018-02-07T07:03:25.881Z,35.50
2018-02-07T07:05:52.930Z,42.10
2018-02-07T07:08:19.740Z,44.13
2018-02-07T07:10:46.515Z,38.20
2018-02-07T07:13:13.222Z,38.20
2018-02-07T07:15:43.418Z,35.50
2018-02-07T07:18:10.506Z,42.53
2018-02-07T07:20:37.187Z,41.03
2018-02-07T07:23:03.925Z,47.10
2018-02-07T07:25:30.675Z,39.40
2018-02-07T07:27:57.612Z,43.03
2018-02-07T07:30:24.286Z,38.27
2018-02-07T07:32:50.989Z,41.73
2018-02-07T07:35:17.832Z,35.43
2018-02-07T07:37:44.584Z,39.60
2018-02-07T07:40:11.299Z,46.20
2018-02-07T07:42:37.978Z,41.43
2018-02-07T07:45:04.653Z,43.17
2018-02-07T07:47:31.406Z,46.83
2018-02-07T07:49:58.151Z,43.07
2018-02-07T07:52:24.841Z,40.30
2018-02-07T07:54:51.565Z,44.83
2018-02-07T07:57:18.277Z,43.13
2018-02-07T07:59:45.362Z,42.50
2018-02-07T08:02:12.037Z,39.17
2018-02-07T08:04:38.871Z,42.17
2018-02-07T08:07:05.603Z,43.77
2018-02-07T08:09:32.318Z,42.70
2018-02-07T08:11:59.625Z,44.57
2018-02-07T08:14:26.377Z,46.77
2018-02-07T08:16:53.133Z,46.67
2018-02-07T08:19:19.837Z,42.67
2018-02-07T08:21:46.586Z,40.67
2018-02-07T08:24:13.555Z,45.80
2018-02-07T08:26:40.317Z,40.03
2018-02-07T08:29:07.067Z,42.03
2018-02-07T08:31:33.756Z,37.43
2018-02-07T08:34:00.468Z,44.07
2018-02-07T08:36:27.188Z,43.03
2018-02-07T08:38:53.911Z,46.20
2018-02-07T08:41:20.924Z,42.97
2018-02-07T08:43:47.647Z,48.80
2018-02-07T08:46:14.358Z,43.60
2018-02-07T08:48:41.070Z,40.77
2018-02-07T08:51:07.898Z,41.30
2018-02-07T08:53:34.616Z,45.73
2018-02-07T08:56:01.442Z,44.87
2018-02-07T08:58:28.137Z,43.37
2018-02-07T09:00:54.865Z,44.63
2018-02-07T09:03:21.628Z,47.50
2018-02-07T09:05:48.328Z,38.23
2018-02-07T09:08:15.054Z,43.33
2018-02-07T09:10:41.738Z,42.03
2018-02-07T09:13:08.434Z,43.37
2018-02-07T09:15:35.247Z,45.17
2018-02-07T09:18:02.012Z,41.57
2018-02-07T09:20:28.800Z,37.53
2018-02-07T09:22:55.508Z,43.37
2018-02-07T09:25:22.196Z,39.73
2018-02-07T09:27:49.029Z,45.23
2018-02-07T09:30:15.884Z,45.70
2018-02-07T09:32:42.610Z,39.00
2018-02-07T09:35:09.305Z,41.10
2018-02-07T09:37:36.089Z,41.87
2018-02-07T09:40:02.795Z,40.87
2018-02-07T09:42:29.470Z,43.27
2018-02-07T09:44:56.185Z,41.97
2018-02-07T09:47:22.938Z,41.60
2018-02-07T09:49:49.853Z,39.40
2018-02-07T09:52:16.585Z,43.10
2018-02-07T09:54:43.399Z,43.30
2018-02-07T09:57:10.091Z,44.30
2018-02-07T09:59:36.832Z,39.20
2018-02-07T10:02:03.543Z,39.87
2018-02-07T10:04:30.284Z,43.50
2018-02-07T10:06:57.101Z,39.80
2018-02-07T10:09:23.888Z,37.70
2018-02-07T10:11:51.188Z,35.73
2018-02-07T10:14:17.880Z,43.80
2018-02-07T10:16:44.632Z,46.93
2018-02-07T10:19:11.360Z,42.83
2018-02-07T10:21:38.311Z,41.47
2018-02-07T10:24:05.100Z,44.00
2018-02-07T10:26:32.507Z,42.30
2018-02-07T10:28:59.264Z,42.90
2018-02-07T10:31:26.674Z,40.60
2018-02-07T10:33:53.445Z,47.60
2018-02-07T10:36:20.197Z,47.70
2018-02-07T10:38:46.889Z,41.70
2018-02-07T10:41:13.558Z,42.30
2018-02-07T10:43:41.211Z,39.27
2018-02-07T10:46:08.085Z,37.93
2018-02-07T10:48:34.927Z,42.10
2018-02-07T10:51:01.695Z,41.80
2018-02-07T10:53:28.521Z,41.47
2018-02-07T10:55:56.617Z,36.57
2018-02-07T10:58:23.922Z,44.63
2018-02-07T11:00:50.655Z,38.67
2018-02-07T11:03:18.322Z,42.00
2018-02-07T11:05:45.112Z,43.70
2018-02-07T11:08:11.834Z,42.77
2018-02-07T11:10:38.712Z,38.40
2018-02-07T11:13:05.533Z,38.97
2018-02-07T11:15:32.390Z,38.20
2018-02-07T11:17:59.165Z,39.37
2018-02-07T11:20:25.899Z,42.90
2018-02-07T11:22:53.029Z,39.77
2018-02-07T11:25:19.918Z,37.37
2018-02-07T11:27:46.671Z,42.43
2018-02-07T11:30:13.412Z,38.27
2018-02-07T11:32:40.483Z,34.80
2018-02-07T11:35:07.201Z,40.00
2018-02-07T11:37:33.919Z,41.40
2018-02-07T11:40:00.661Z,42.17
2018-02-07T11:42:27.529Z,37.50
2018-02-07T11:44:54.211Z,39.20
2018-02-07T11:47:22.439Z,36.47
2018-02-07T11:49:49.360Z,37.53
2018-02-07T11:52:16.055Z,35.47
2018-02-07T11:54:42.854Z,34.37
2018-02-07T11:57:09.692Z,35.90
2018-02-07T11:59:36.441Z,40.90
2018-02-07T12:02:03.183Z,39.13
2018-02-07T12:04:30.013Z,42.90
2018-02-07T12:06:57.159Z,38.17
2018-02-07T12:09:24.000Z,39.30
2018-02-07T12:11:50.838Z,40.80
2018-02-07T12:14:17.522Z,39.83
2018-02-07T12:16:44.413Z,39.60
2018-02-07T12:19:11.143Z,42.17
2018-02-07T12:21:37.845Z,38.97
2018-02-07T12:24:04.553Z,38.63
2018-02-07T12:26:31.272Z,43.70
2018-02-07T12:28:57.990Z,44.70
2018-02-07T12:31:24.845Z,46.50
2018-02-07T12:33:51.510Z,42.60
2018-02-07T12:36:18.261Z,41.03
2018-02-07T12:38:45.013Z,41.10
2018-02-07T12:41:11.735Z,42.20
2018-02-07T12:43:38.432Z,41.43
2018-02-07T12:46:05.164Z,44.90
2018-02-07T12:48:31.966Z,43.30
2018-02-07T12:50:58.692Z,45.30
2018-02-07T12:53:25.436Z,48.10
2018-02-07T12:55:52.158Z,42.03
2018-02-07T12:58:18.861Z,44.10
2018-02-07T13:00:45.588Z,44.77
2018-02-07T13:03:12.290Z,49.13
2018-02-07T13:05:39.026Z,42.07
2018-02-07T13:08:05.758Z,47.00
2018-02-07T13:10:32.446Z,47.73
2018-02-07T13:12:59.439Z,46.03
2018-02-07T13:15:26.109Z,47.40
2018-02-07T13:17:53.678Z,41.93
2018-02-07T13:20:20.371Z,40.50
2018-02-07T13:22:47.092Z,45.73
2018-02-07T13:25:13.793Z,49.97
2018-02-07T13:27:40.554Z,41.30
2018-02-07T13:30:07.268Z,43.10
2018-02-07T13:32:33.951Z,43.57
2018-02-07T13:35:00.646Z,42.37
2018-02-07T13:37:27.326Z,48.67
2018-02-07T13:39:53.997Z,48.83
2018-02-07T13:42:20.739Z,45.60
2018-02-07T13:44:48.055Z,45.63
2018-02-07T13:47:14.938Z,46.40
2018-02-07T13:49:41.681Z,46.60
2018-02-07T13:52:08.443Z,50.83
2018-02-07T13:54:35.181Z,43.23
2018-02-07T13:57:01.899Z,45.70
2018-02-07T13:59:28.606Z,46.80
2018-02-07T14:01:55.353Z,44.10
2018-02-07T14:04:22.198Z,46.03
2018-02-07T14:06:49.085Z,46.30
2018-02-07T14:09:15.904Z,44.77
2018-02-07T14:11:42.607Z,48.30
2018-02-07T14:14:09.303Z,45.23
2018-02-07T14:16:36.046Z,50.80
2018-02-07T14:19:02.867Z,47.93
2018-02-07T14:21:29.688Z,50.93
2018-02-07T14:23:56.493Z,48.03
2018-02-07T14:26:23.281Z,46.57
2018-02-07T14:28:50.078Z,48.80
2018-02-07T14:31:16.715Z,51.73
2018-02-07T14:33:43.709Z,50.53
2018-02-07T14:36:10.526Z,41.90
2018-02-07T14:38:37.267Z,48.93
2018-02-07T14:41:04.050Z,43.00
2018-02-07T14:43:30.744Z,47.13
2018-02-07T14:45:57.544Z,46.13
2018-02-07T14:48:24.352Z,45.00
2018-02-07T14:50:51.128Z,46.10
2018-02-07T14:53:17.943Z,51.30
2018-02-07T14:55:44.683Z,45.70
2018-02-07T14:58:11.493Z,47.50
2018-02-07T15:00:38.252Z,51.97
2018-02-07T15:03:05.059Z,48.00
2018-02-07T15:05:31.773Z,43.30
2018-02-07T15:07:58.536Z,43.43
2018-02-07T15:10:25.300Z,41.53
2018-02-07T15:12:52.043Z,47.87
2018-02-07T15:15:18.916Z,56.27
2018-02-07T15:17:45.668Z,47.30
2018-02-07T15:20:12.518Z,50.33
2018-02-07T15:22:39.295Z,48.03
2018-02-07T15:25:06.010Z,51.07
2018-02-07T15:27:32.994Z,50.60
2018-02-07T15:29:59.710Z,43.87
2018-02-07T15:32:26.465Z,50.27
2018-02-07T15:34:53.190Z,50.33
2018-02-07T15:37:19.900Z,49.00
2018-02-07T15:39:46.682Z,46.77
2018-02-07T15:42:13.370Z,47.73
2018-02-07T15:44:40.085Z,45.70
2018-02-07T15:47:06.784Z,46.77
2018-02-07T15:49:33.577Z,46.47
2018-02-07T15:52:00.346Z,45.80
2018-02-07T15:54:27.056Z,50.23
2018-02-07T15:56:54.337Z,46.97
2018-02-07T15:59:21.058Z,49.40
2018-02-07T16:01:47.810Z,45.67
2018-02-07T16:04:14.577Z,48.57
2018-02-07T16:06:41.273Z,51.73
2018-02-07T16:09:08.028Z,49.80
2018-02-07T16:11:34.711Z,47.87
2018-02-07T16:14:01.483Z,50.33
2018-02-07T16:16:28.194Z,51.83
2018-02-07T16:18:54.881Z,49.03
2018-02-07T16:21:21.669Z,47.40
2018-02-07T16:23:48.633Z,50.80
2018-02-07T16:26:15.340Z,47.47
2018-02-07T16:28:42.030Z,47.87
2018-02-07T16:31:08.763Z,45.67
2018-02-07T16:33:35.574Z,51.07
2018-02-07T16:36:02.478Z,96.10
2018-02-07T16:38:29.174Z,49.13
2018-02-07T16:40:56.289Z,48.23
2018-02-07T16:43:23.076Z,46.73
2018-02-07T16:45:49.862Z,50.07
2018-02-07T16:48:16.786Z,47.60
2018-02-07T16:50:43.466Z,49.97
2018-02-07T16:53:10.607Z,50.73
2018-02-07T16:55:37.348Z,44.97
2018-02-07T16:58:04.070Z,47.63
2018-02-07T17:00:30.762Z,51.03
2018-02-07T17:02:57.510Z,51.10
2018-02-07T17:05:24.246Z,47.53
2018-02-07T17:07:51.024Z,46.97
2018-02-07T17:10:17.717Z,46.53
2018-02-07T17:12:44.433Z,50.73
2018-02-07T17:15:11.218Z,47.00
2018-02-07T17:17:38.120Z,44.60
2018-02-07T17:20:04.914Z,50.20
2018-02-07T17:22:31.671Z,51.43
2018-02-07T17:24:58.381Z,50.17
2018-02-07T17:27:25.140Z,46.17
2018-02-07T17:29:51.806Z,48.67
2018-02-07T17:32:18.581Z,53.37
2018-02-07T17:34:45.275Z,51.97
2018-02-07T17:37:12.025Z,45.00
2018-02-07T17:39:38.762Z,48.23
2018-02-07T17:42:05.536Z,51.07
2018-02-07T17:44:32.234Z,47.80
2018-02-07T17:46:59.307Z,48.80
2018-02-07T17:49:26.037Z,50.93
2018-02-07T17:51:52.923Z,46.13
2018-02-07T17:54:20.034Z,49.27
2018-02-07T17:56:46.917Z,53.30
2018-02-07T17:59:13.711Z,52.00
2018-02-07T18:01:40.447Z,50.40
2018-02-07T18:04:07.132Z,44.83
2018-02-07T18:06:34.689Z,49.27
2018-02-07T18:09:01.533Z,51.90
2018-02-07T18:11:28.259Z,52.90
2018-02-07T18:13:55.043Z,48.03
2018-02-07T18:16:21.778Z,51.20
2018-02-07T18:18:48.487Z,49.50
2018-02-07T18:21:15.299Z,50.83
2018-02-07T18:23:41.984Z,44.53
2018-02-07T18:26:08.738Z,51.33
2018-02-07T18:28:35.434Z,53.60
2018-02-07T18:31:02.347Z,52.80
2018-02-07T18:33:29.103Z,55.33
2018-02-07T18:35:55.940Z,53.80
2018-02-07T18:38:22.629Z,53.73
2018-02-07T18:40:49.320Z,51.97
2018-02-07T18:43:16.009Z,48.27
2018-02-07T18:45:42.742Z,51.50
2018-02-07T18:48:09.466Z,50.23
2018-02-07T18:50:36.193Z,52.83
2018-02-07T18:53:02.910Z,49.80
2018-02-07T18:55:29.612Z,53.53
2018-02-07T18:57:56.363Z,51.60
2018-02-07T19:00:23.094Z,53.30
2018-02-07T19:02:50.211Z,59.43
2018-02-07T19:05:16.904Z,50.90
2018-02-07T19:07:43.688Z,48.63
2018-02-07T19:10:10.432Z,46.13
2018-02-07T19:12:37.272Z,50.93
2018-02-07T19:15:04.109Z,52.80
2018-02-07T19:17:30.811Z,47.50
2018-02-07T19:19:57.607Z,48.87
2018-02-07T19:22:24.292Z,50.97
2018-02-07T19:24:51.082Z,47.60
2018-02-07T19:27:17.867Z,52.13
2018-02-07T19:29:44.577Z,44.80
2018-02-07T19:32:12.034Z,46.97
2018-02-07T19:34:38.760Z,47.90
2018-02-07T19:37:05.543Z,50.10
2018-02-07T19:39:32.437Z,46.60
2018-02-07T19:41:59.289Z,46.93
2018-02-07T19:44:26.070Z,50.70
2018-02-07T19:46:52.812Z,47.37
2018-02-07T19:49:19.544Z,47.63
2018-02-07T19:51:46.305Z,46.50
2018-02-07T19:54:13.000Z,43.67
2018-02-07T19:56:39.676Z,47.50
2018-02-07T19:59:06.734Z,53.03
2018-02-07T20:01:33.466Z,49.70
2018-02-07T20:04:00.304Z,47.70
2018-02-07T20:06:26.999Z,50.93
2018-02-07T20:08:53.690Z,47.73
2018-02-07T20:11:20.395Z,49.60
2018-02-07T20:13:47.093Z,44.17
2018-02-07T20:16:13.798Z,49.40
2018-02-07T20:18:40.566Z,49.10
2018-02-07T20:21:07.315Z,52.90
2018-02-07T20:23:34.014Z,51.17
2018-02-07T20:26:02.736Z,49.03
2018-02-07T20:28:29.588Z,50.00
2018-02-07T20:30:56.363Z,45.90
2018-02-07T20:33:23.132Z,46.53
2018-02-07T20:35:50.218Z,51.20
2018-02-07T20:38:16.910Z,49.87
2018-02-07T20:40:43.649Z,50.83
2018-02-07T20:43:10.490Z,57.23
2018-02-07T20:45:37.182Z,49.10
2018-02-07T20:48:03.898Z,48.20
2018-02-07T20:50:30.603Z,54.43
2018-02-07T20:52:57.359Z,50.97
2018-02-07T20:55:24.219Z,52.67
2018-02-07T20:57:51.104Z,55.27
2018-02-07T21:00:17.967Z,52.70
2018-02-07T21:02:44.729Z,50.00
2018-02-07T21:05:11.421Z,52.47
2018-02-07T21:07:38.445Z,59.03
2018-02-07T21:10:05.157Z,57.77
2018-02-07T21:12:32.042Z,51.60
2018-02-07T21:14:59.579Z,52.83
2018-02-07T21:17:26.317Z,56.23
2018-02-07T21:19:53.115Z,49.20
2018-02-07T21:22:23.582Z,54.73
2018-02-07T21:24:50.269Z,57.20
2018-02-07T21:27:17.003Z,58.40
2018-02-07T21:29:43.717Z,56.77
2018-02-07T21:32:10.433Z,57.80
2018-02-07T21:34:37.276Z,53.77
2018-02-07T21:37:04.007Z,57.40
2018-02-07T21:39:30.841Z,52.20
2018-02-07T21:41:57.598Z,55.80
2018-02-07T21:44:24.494Z,59.70
2018-02-07T21:46:51.176Z,57.80
2018-02-07T21:49:18.012Z,61.80
2018-02-07T21:51:44.759Z,54.30
2018-02-07T21:54:11.486Z,56.93
2018-02-07T21:56:38.263Z,52.10
2018-02-07T21:59:05.004Z,51.63
2018-02-07T22:01:31.739Z,52.77
2018-02-07T22:03:58.639Z,54.23
2018-02-07T22:06:25.596Z,57.43
2018-02-07T22:08:52.350Z,58.73
2018-02-07T22:11:19.124Z,55.30
2018-02-07T22:13:45.817Z,54.20
2018-02-07T22:16:12.485Z,55.10
2018-02-07T22:18:39.223Z,60.63
2018-02-07T22:21:06.006Z,57.13
2018-02-07T22:23:32.707Z,52.93
2018-02-07T22:25:59.547Z,54.60
2018-02-07T22:28:26.311Z,59.93
2018-02-07T22:30:53.298Z,60.20
2018-02-07T22:33:20.021Z,56.50
2018-02-07T22:35:46.896Z,59.93
2018-02-07T22:38:13.571Z,57.00
2018-02-07T22:40:40.334Z,59.97
2018-02-07T22:43:07.054Z,60.67
2018-02-07T22:45:33.769Z,59.10
2018-02-07T22:48:02.604Z,58.77
2018-02-07T22:50:33.022Z,61.77
2018-02-07T22:53:00.789Z,62.00
2018-02-07T22:57:59.555Z,61.03
2018-02-07T23:00:26.272Z,60.57
2018-02-07T23:02:52.969Z,60.20
2018-02-07T23:05:19.689Z,60.10
2018-02-07T23:07:46.420Z,61.77
2018-02-07T23:10:13.115Z,53.43
2018-02-07T23:12:39.811Z,63.97
2018-02-07T23:15:06.572Z,54.73
2018-02-07T23:17:33.546Z,61.87
2018-02-07T23:20:00.292Z,62.43
2018-02-07T23:22:26.975Z,64.80
2018-02-07T23:24:53.751Z,64.37
2018-02-07T23:27:20.482Z,61.47
2018-02-07T23:29:47.187Z,66.07
2018-02-07T23:32:14.901Z,61.37
2018-02-07T23:34:41.604Z,63.10
2018-02-07T23:37:08.325Z,64.40
2018-02-07T23:39:35.040Z,69.80
2018-02-07T23:42:01.764Z,65.77
2018-02-07T23:44:28.618Z,65.17
2018-02-07T23:46:55.364Z,66.73
2018-02-07T23:49:22.223Z,62.80
2018-02-07T23:51:48.961Z,65.23
2018-02-07T23:54:15.702Z,63.40
2018-02-07T23:56:42.558Z,62.60
2018-02-07T23:59:09.236Z,65.13
